• Join FlightAware (Why Join?)
  • Login
  • US Flag 
05:42AM EDT


 

Airport Tracker/Info


-or-


 

Live Flight TrackerFlight Track Log ✈ ASQ6041 ✈ 10-Mar-2014 ✈ KDEN - KLNK

Flight Track Log - Related Links

Times and Time Zones

All times are in EDT time to prevent confusion due to time zone crossing. See the ASQ6041 flight status page for this flight to view local times or setup timezone preferences in your user account.

Time Position Orientation Groundspeed Altitude Reporting Facility
EDT Latitude Longitude Course Direction KTS MPH feet Rate Location/Type
01:47PM 39.8833 -104.6000 90° East 177 204 7,000  Level Denver TRACON
01:48PM 39.8833 -104.5167 90° East 240 276 8,500 1,680 Climbing Denver TRACON
01:49PM 39.8833 -104.4167 90° East 305 351 10,400 2,160 Climbing Denver TRACON
01:50PM 39.8833 -104.3167 90° East 306 352 12,700 2,100 Climbing Denver TRACON
01:51PM 39.8783 -104.1922 93° East 323 372 14,700 1,800 Climbing Denver Center
01:52PM 39.8797 -104.0550 89° East 350 403 16,600 1,740 Climbing Denver Center
01:53PM 39.8814 -103.9203 89° East 368 423 18,300 1,680 Climbing Denver Center
01:54PM 39.9022 -103.7750 79° East 376 433 20,200 1,740 Climbing Denver Center
01:55PM 39.9264 -103.6400 77° East 375 432 21,900 1,680 Climbing Denver Center
01:56PM 39.9483 -103.5003 78° East 387 445 23,700 1,620 Climbing Denver Center
01:57PM 39.9717 -103.3608 78° East 391 450 25,300 1,380 Climbing Denver Center
01:58PM 39.9936 -103.2186 79° East 398 458 26,600 780 Climbing Denver Center
01:59PM 40.0244 -103.0367 77° East 428 493 27,000 180 Climbing Denver Center
02:00PM 40.0508 -102.8706 78° East 465 535 27,000  Level Denver Center
02:01PM 40.0775 -102.6997 78° East 481 554 27,000  Level Denver Center
02:02PM 40.1078 -102.5028 79° East 497 572 27,000  Level Denver Center
02:03PM 40.1356 -102.3325 78° East 500 575 27,000  Level Denver Center
02:04PM 40.1661 -102.1308 79° East 505 581 27,000  Level Denver Center
02:05PM 40.1914 -101.9600 79° East 504 580 27,000  Level Denver Center
02:06PM 40.2206 -101.7619 79° East 501 577 27,000  Level Denver Center
02:07PM 40.2467 -101.5922 79° East 501 577 27,000  Level Denver Center
02:08PM 40.2717 -101.4219 79° East 499 574 27,000  Level Denver Center
02:10PM 40.3003 -101.2233 79° East 498 573 27,000  Level Denver Center
02:11PM 40.3247 -101.0528 79° East 500 575 27,000  Level Denver Center
02:12PM 40.3517 -100.8542 80° East 500 575 27,000  Level Denver Center
02:13PM 40.3756 -100.6839 80° East 500 575 27,000  Level Denver Center
02:14PM 40.4039 -100.4836 79° East 500 575 27,000  Level Denver Center
02:15PM 40.4308 -100.2833 80° East 501 577 27,000  Level Denver Center
02:16PM 40.4544 -100.1119 80° East 501 577 27,000  Level Denver Center
02:17PM 40.4806 -99.9103 80° East 503 579 27,000  Level Denver Center
02:18PM 40.5025 -99.7422 80° East 506 582 27,000  Level Denver Center
02:19PM 40.5311 -99.5261 80° East 506 582 27,000  Level Denver Center
02:20PM 40.5539 -99.3442 81° East 505 581 27,000  Level Denver Center
02:21PM 40.5808 -99.1272 81° East 505 581 27,000  Level Denver Center
02:22PM 40.6078 -98.9100 81° East 505 581 27,000  Level Denver Center
02:23PM 40.6206 -98.8017 81° East 504 580 27,000 -60 Level Minneapolis Center
02:24PM 40.6433 -98.6214 80° East 504 580 26,900 -1,140 Descending Minneapolis Center
02:25PM 40.6692 -98.4033 81° East 505 581 24,700 -2,100 Descending Minneapolis Center
02:26PM 40.6894 -98.2319 81° East 490 564 22,600 -2,220 Descending Minneapolis Center
02:27PM 40.7092 -98.0658 81° East 477 549 20,200 -2,340 Descending Minneapolis Center
02:28PM 40.7269 -97.9119 81° East 453 521 17,900 -2,280 Descending Minneapolis Center
02:29PM 40.7428 -97.7592 82° East 435 501 15,600 -2,280 Descending Minneapolis Center
02:30PM 40.7606 -97.6078 81° East 426 490 13,300 -2,580 Descending Minneapolis Center
02:30PM 40.7414 -97.5639 120° Southeast 418 481 12,800 -2,040 Descending Minneapolis Center
02:31PM 40.7803 -97.4322 69° East 414 476 11,200 -1,380 Descending Minneapolis Center
02:32PM 40.7675 -97.3469 101° East 356 410 10,600 -1,080 Descending Minneapolis Center
02:32PM 40.7922 -97.3075 50° Northeast 373 429 10,100 -1,440 Descending Minneapolis Center
02:33PM 40.7794 -97.2581 109° East 314 361 9,600 -1,320 Descending Minneapolis Center
02:33PM 40.8036 -97.1936 64° Northeast 338 389 8,800 -1,380 Descending Minneapolis Center
02:34PM 40.7925 -97.1522 110° East 288 331 8,200 -1,560 Descending Minneapolis Center
02:34PM 40.8217 -97.0917 58° Northeast 313 360 7,200 -1,680 Descending Minneapolis Center
02:35PM 40.8164 -97.0592 102° East 280 322 6,700 -1,800 Descending Minneapolis Center
02:35PM 40.8458 -96.9947 59° Northeast 294 338 5,400 -1,920 Descending Minneapolis Center
02:36PM 40.8400 -96.9578 102° East 276 318 4,800 -1,200 Descending Minneapolis Center
02:36PM 40.8772 -96.9086 45° Northeast 275 316 4,200 -1,020 Descending Minneapolis Center
02:37PM 40.8858 -96.8817 67° East 214 246 3,700 -720 Descending Minneapolis Center
02:37PM 40.9231 -96.8633 20° North 232 267 3,500 -420 Descending Minneapolis Center
02:38PM 40.9211 -96.8422 97° East 144 166 3,300 -600 Descending Minneapolis Center
02:38PM 40.9350 -96.8019 65° Northeast 183 211 2,900 -540 Descending Minneapolis Center
02:39PM 40.9175 -96.7792 135° Southeast 153 176 2,700 -720 Descending Minneapolis Center
02:39PM 40.9092 -96.7614 122° Southeast 163 188 2,200 -840 Descending Minneapolis Center
02:40PM 40.8828 -96.7581 175° South 147 169 1,900 -300 Descending Minneapolis Center
02:41PM 40.8703 -96.7625 195° South 158 182 1,900  Level Minneapolis Center
02:43PM 40.8500 -96.7500 66° East  Level FlightAware Approximate